CDT,Max TemperatureF,Mean TemperatureF,Min TemperatureF,Max Dew PointF,MeanDew PointF,Min DewpointF,Max Humidity, Mean Humidity, Min Humidity, Max Sea Level PressureIn, Mean Sea Level PressureIn, Min Sea Level PressureIn, Max VisibilityMiles, Mean VisibilityMiles, Min VisibilityMiles, Max Wind SpeedMPH, Mean Wind SpeedMPH, Max Gust SpeedMPH,PrecipitationIn, CloudCover, Events, WindDirDegrees
2011-10-1,,,,,,,,,,,,,,,,,,,,,,
2011-10-2,,,,,,,,,,,,,,,,,,,,,,
2011-10-3,80,68,60,43,37,34,52,30,18,30.21,30.17,30.11,10,10,10,10,6,,0.00,0,,20
2011-10-4,82,74,66,45,43,41,46,31,24,30.22,30.18,30.12,10,10,10,9,5,,0.00,0,,28
2011-10-5,84,73,64,57,52,48,64,42,30,30.20,30.16,30.09,10,10,10,9,6,,0.00,0,,89
2011-10-6,84,74,66,57,55,54,73,47,35,30.20,30.16,30.11,10,10,10,12,7,,0.00,0,,83
2011-10-7,,,,,,,,,,,,,,,,,,,,,,
2011-10-8,,,,,,,,,,,,,,,,,,,,,,
2011-10-9,,,,,,,,,,,,,,,,,,,,,,
2011-10-10,,,,,,,,,,,,,,,,,,,,,,
2011-10-11,71,68,66,64,64,61,94,80,73,29.84,29.82,29.79,10,9,7,12,8,,0.00,8,,27
2011-10-12,72,66,62,64,62,59,94,84,73,29.87,29.82,29.80,10,6,0,6,2,,0.00,7,Fog-Rain,326
2011-10-13,84,72,60,64,59,53,94,76,34,29.84,29.77,29.66,10,6,0,15,2,22,0.01,3,Fog-Rain,301
2011-10-14,84,70,55,55,51,42,84,60,23,30.02,29.93,29.84,10,10,9,8,3,,0.00,0,,354
2011-10-15,88,70,53,57,51,45,83,61,23,30.12,30.07,30.03,10,10,2,7,1,,0.00,0,,13
2011-10-16,90,72,54,58,52,48,83,60,24,30.15,30.08,30.01,10,10,9,6,1,,0.01,0,,103
2011-10-17,90,72,54,60,54,49,86,62,27,30.03,29.93,29.83,10,10,9,4,0,,0.00,0,,175
2011-10-18,84,70,59,67,62,54,90,78,54,29.81,29.68,29.55,10,7,0,14,2,,0.02,4,Fog-Rain,173
2011-10-19,66,57,48,61,41,33,83,58,33,29.94,29.72,29.57,10,10,8,25,17,37,0.00,5,Rain,328
2011-10-20,64,53,42,41,36,31,85,59,28,30.12,30.03,29.95,10,10,10,18,7,28,0.00,0,,314
2011-10-21,70,54,39,42,36,31,85,59,24,30.22,30.15,30.11,10,10,10,13,2,22,0.00,0,,349
2011-10-22,73,56,39,42,37,34,83,56,25,30.19,30.11,30.06,10,10,2,13,3,,0.00,0,,18
2011-10-23,75,58,41,50,43,36,83,63,30,30.11,30.07,30.03,10,10,10,7,1,,0.00,0,,108
2011-10-24,82,66,51,57,51,46,86,63,38,30.19,30.13,30.08,10,9,5,9,2,,0.00,2,,352
2011-10-25,82,66,50,53,48,42,86,62,24,30.24,30.17,30.11,10,10,10,9,2,,0.00,0,,138
2011-10-26,81,64,48,59,52,43,87,69,41,30.14,30.05,29.98,10,10,7,6,1,,0.00,1,,150
2011-10-27,82,68,55,58,56,53,90,69,39,29.98,29.92,29.86,10,9,4,7,1,,0.00,4,,320
2011-10-28,82,66,51,61,53,48,94,79,39,30.00,29.93,29.86,10,5,0,16,2,23,0.00,4,Fog,328
2011-10-29,68,58,48,48,36,24,77,53,20,30.14,30.06,30.01,10,10,10,17,12,29,0.00,3,,27
2011-10-30,69,52,39,41,33,26,77,52,21,30.24,30.19,30.15,10,10,10,14,3,20,0.00,0,,115
2011-10-31,75,58,43,47,38,33,76,52,28,30.20,30.16,30.09,10,10,4,9,2,,0.00,0,,33